createdAt,value
2023-08-29T00:00:14.103Z,99520.67
2023-08-29T00:03:06.765Z,99514.45
2023-08-29T00:05:39.973Z,99505.58
2023-08-29T00:08:12.334Z,99509.65
2023-08-29T00:10:45.008Z,99513.52
2023-08-29T00:13:17.276Z,99518.66
2023-08-29T00:15:50.063Z,99512.08
2023-08-29T00:18:23.075Z,99515.08
2023-08-29T00:20:55.845Z,99529.10
2023-08-29T00:23:29.146Z,99549.98
2023-08-29T00:26:01.552Z,99565.52
2023-08-29T00:28:34.007Z,99546.29
2023-08-29T00:31:06.485Z,99523.80
2023-08-29T00:33:38.830Z,99503.71
2023-08-29T00:36:11.305Z,99485.06
2023-08-29T00:38:43.989Z,99491.30
2023-08-29T00:41:16.697Z,99491.45
2023-08-29T00:43:48.962Z,99487.70
2023-08-29T00:46:22.044Z,99483.86
2023-08-29T00:48:54.696Z,99469.25
2023-08-29T00:51:28.080Z,99447.55
2023-08-29T00:54:02.231Z,99435.96
2023-08-29T00:56:35.192Z,99441.02
2023-08-29T00:59:07.520Z,99444.90
2023-08-29T01:01:40.956Z,99446.39
2023-08-29T01:04:13.310Z,99448.81
2023-08-29T01:06:46.012Z,99430.71
2023-08-29T01:09:18.988Z,99429.28
2023-08-29T01:12:05.405Z,99436.71
2023-08-29T01:14:42.912Z,99451.02
2023-08-29T01:17:22.178Z,99449.25
2023-08-29T01:19:56.371Z,99445.75
2023-08-29T01:22:49.011Z,99440.20
2023-08-29T01:25:29.188Z,99414.18
2023-08-29T01:28:03.217Z,99392.10
2023-08-29T01:30:36.851Z,99381.23
2023-08-29T01:33:10.648Z,99391.84
2023-08-29T01:35:48.752Z,99412.76
2023-08-29T01:38:21.232Z,99420.34
2023-08-29T01:40:54.039Z,99406.74
2023-08-29T01:43:26.448Z,99386.31
2023-08-29T01:45:59.091Z,99394.35
2023-08-29T01:48:32.918Z,99449.23
2023-08-29T01:51:05.687Z,99550.87
2023-08-29T01:53:40.422Z,99561.95
2023-08-29T01:56:17.944Z,99418.54
2023-08-29T01:58:53.080Z,99354.14
2023-08-29T02:01:26.066Z,99375.46
2023-08-29T02:03:59.098Z,99421.33
2023-08-29T02:06:31.795Z,99440.16
2023-08-29T02:09:04.742Z,99435.89
2023-08-29T02:11:37.161Z,99438.73
2023-08-29T02:14:12.085Z,99448.01
2023-08-29T02:16:44.783Z,99465.48
2023-08-29T02:19:20.825Z,99497.73
2023-08-29T02:21:53.545Z,99521.97
2023-08-29T02:24:25.871Z,99532.70
2023-08-29T02:26:58.245Z,99532.20
2023-08-29T02:29:30.593Z,99504.38
2023-08-29T02:32:03.950Z,99478.46
2023-08-29T02:34:36.391Z,99429.79
2023-08-29T02:37:09.313Z,99401.79
2023-08-29T02:39:43.092Z,99391.67
2023-08-29T02:42:15.882Z,99403.79
2023-08-29T02:44:48.260Z,99411.95
2023-08-29T02:47:20.789Z,99427.92
2023-08-29T02:49:53.776Z,99430.08
2023-08-29T02:52:27.808Z,99414.67
2023-08-29T02:55:00.218Z,99388.15
2023-08-29T02:57:32.914Z,99387.86
2023-08-29T03:00:06.647Z,99401.67
2023-08-29T03:02:39.129Z,99407.79
2023-08-29T03:05:13.524Z,99430.54
2023-08-29T03:07:46.200Z,99417.46
2023-08-29T03:10:19.489Z,99388.98
2023-08-29T03:12:54.344Z,99358.69
2023-08-29T03:15:27.351Z,99293.37
2023-08-29T03:18:01.466Z,99259.35
2023-08-29T03:20:34.822Z,99222.89
2023-08-29T03:23:08.006Z,99164.55
2023-08-29T03:25:41.351Z,99118.31
2023-08-29T03:28:13.849Z,99084.92
2023-08-29T03:30:46.582Z,99089.46
2023-08-29T03:33:19.025Z,99100.39
2023-08-29T03:36:01.264Z,99126.80
2023-08-29T03:38:34.722Z,99129.41
2023-08-29T03:41:08.623Z,99118.48
2023-08-29T03:43:41.302Z,99116.30
2023-08-29T03:46:15.144Z,99108.09
2023-08-29T03:48:48.162Z,99124.58
2023-08-29T04:05:17.293Z,99339.83
2023-08-29T04:07:49.650Z,99357.38
2023-08-29T04:10:21.886Z,99362.84
2023-08-29T04:12:54.323Z,99329.50
2023-08-29T04:15:28.254Z,99285.70
2023-08-29T04:18:00.688Z,99275.36
2023-08-29T04:20:33.372Z,99283.21
2023-08-29T04:23:08.198Z,99269.02
2023-08-29T04:25:40.467Z,99255.71
2023-08-29T04:28:13.356Z,99253.42
2023-08-29T04:30:45.545Z,99253.58
2023-08-29T04:33:18.171Z,99254.17
2023-08-29T04:35:53.571Z,99267.85
2023-08-29T04:38:26.039Z,99279.80
2023-08-29T04:40:59.576Z,99280.14
2023-08-29T04:43:31.835Z,99280.14
2023-08-29T04:46:05.495Z,99282.77
2023-08-29T04:48:38.188Z,99284.09
2023-08-29T04:51:10.556Z,99277.42
2023-08-29T04:53:42.673Z,99263.59
2023-08-29T04:56:15.878Z,99248.34
2023-08-29T04:58:49.032Z,99227.66
2023-08-29T05:01:21.246Z,99205.57
2023-08-29T05:03:53.879Z,99196.75
2023-08-29T05:06:27.185Z,99197.95
2023-08-29T05:08:59.674Z,99192.58
2023-08-29T05:11:31.888Z,99174.81
2023-08-29T05:14:04.328Z,99161.73
2023-08-29T05:16:36.900Z,99149.52
2023-08-29T05:19:09.456Z,99124.55
2023-08-29T05:21:41.955Z,99114.70
2023-08-29T05:24:16.450Z,99110.21
2023-08-29T05:26:49.935Z,99108.84
2023-08-29T05:29:22.398Z,99108.16
2023-08-29T05:31:54.538Z,99110.64
2023-08-29T05:34:27.286Z,99118.16
2023-08-29T05:36:59.786Z,99109.06
2023-08-29T05:39:31.898Z,99102.20
2023-08-29T05:42:05.185Z,99100.74
2023-08-29T05:44:39.451Z,99101.65
2023-08-29T05:47:12.292Z,99106.00
2023-08-29T05:49:44.600Z,99105.00
2023-08-29T05:52:16.709Z,99110.85
2023-08-29T05:54:49.093Z,99104.84
2023-08-29T05:57:21.670Z,99099.48
2023-08-29T05:59:55.070Z,99092.30
2023-08-29T06:02:27.918Z,99082.11
2023-08-29T06:05:00.596Z,99074.95
2023-08-29T06:07:33.437Z,99067.20
2023-08-29T06:10:06.098Z,99061.98
2023-08-29T06:12:38.494Z,99059.67
2023-08-29T06:15:14.013Z,99057.83
2023-08-29T06:17:46.463Z,99059.75
2023-08-29T06:20:19.903Z,99053.73
2023-08-29T06:22:52.508Z,99043.52
2023-08-29T06:25:25.466Z,99039.58
2023-08-29T06:27:57.594Z,99038.89
2023-08-29T06:30:30.415Z,99052.23
2023-08-29T06:33:02.644Z,99053.30
2023-08-29T06:35:39.581Z,99035.88
2023-08-29T06:38:12.348Z,99030.58
2023-08-29T06:40:44.802Z,99036.21
2023-08-29T06:43:16.878Z,99047.53
2023-08-29T06:45:49.114Z,99066.33
2023-08-29T06:48:21.628Z,99079.73
2023-08-29T06:50:53.822Z,99083.16
2023-08-29T06:53:28.073Z,99083.90
2023-08-29T06:56:00.460Z,99077.42
2023-08-29T06:58:32.922Z,99071.89
2023-08-29T07:01:05.134Z,99065.78
2023-08-29T07:03:37.782Z,99056.55
2023-08-29T07:06:10.111Z,99058.39
2023-08-29T07:08:42.218Z,99056.95
2023-08-29T07:11:14.801Z,99060.39
2023-08-29T07:13:47.043Z,99061.99
2023-08-29T07:16:19.596Z,99051.04
2023-08-29T07:18:52.223Z,99046.58
2023-08-29T07:21:24.764Z,99050.68
2023-08-29T07:23:56.976Z,99052.44
2023-08-29T07:26:29.589Z,99054.70
2023-08-29T07:29:01.824Z,99060.96
2023-08-29T07:31:35.854Z,99064.77
2023-08-29T07:34:09.931Z,99064.40
2023-08-29T07:36:42.435Z,99068.89
2023-08-29T07:39:16.119Z,99077.16
2023-08-29T07:41:48.264Z,99074.15
2023-08-29T07:44:21.609Z,99071.09
2023-08-29T07:47:11.817Z,99064.95
2023-08-29T07:49:44.803Z,99063.95
2023-08-29T07:52:16.978Z,99065.73
2023-08-29T07:54:49.205Z,99063.17
2023-08-29T07:57:21.557Z,99068.48
2023-08-29T07:59:53.981Z,99065.25
2023-08-29T08:02:26.327Z,99064.80
2023-08-29T08:04:58.798Z,99059.10
2023-08-29T08:07:31.404Z,99053.89
2023-08-29T08:10:05.897Z,99052.23
2023-08-29T08:12:39.459Z,99053.25
2023-08-29T08:15:14.782Z,99058.61
2023-08-29T08:17:47.585Z,99059.77
2023-08-29T08:20:20.528Z,99053.41
2023-08-29T08:22:53.338Z,99051.88
2023-08-29T08:25:25.578Z,99054.10
2023-08-29T08:28:00.166Z,99059.01
2023-08-29T08:30:32.655Z,99062.33
2023-08-29T08:33:06.360Z,99058.67
2023-08-29T08:35:41.530Z,99064.11
2023-08-29T08:38:20.642Z,99070.10
2023-08-29T08:40:56.910Z,99069.73
2023-08-29T08:43:30.860Z,99069.19
2023-08-29T08:46:04.312Z,99055.14
2023-08-29T08:48:36.889Z,99056.53
2023-08-29T08:51:11.438Z,99060.80
2023-08-29T08:53:44.145Z,99069.16
2023-08-29T08:56:16.608Z,99069.99
2023-08-29T08:58:48.978Z,99070.23
2023-08-29T09:01:21.394Z,99067.46
2023-08-29T09:03:53.748Z,99069.98
2023-08-29T09:06:26.018Z,99080.02
2023-08-29T09:09:16.181Z,99072.39
2023-08-29T09:11:54.877Z,99068.95
2023-08-29T09:14:28.819Z,99079.38
2023-08-29T09:17:01.752Z,99078.80
2023-08-29T09:19:35.525Z,99087.02
2023-08-29T09:22:07.962Z,99090.88
2023-08-29T09:24:40.791Z,99094.06
2023-08-29T09:27:13.416Z,99093.25
2023-08-29T09:29:45.913Z,99091.02
2023-08-29T09:32:18.791Z,99094.00
2023-08-29T09:34:51.855Z,99093.21
2023-08-29T09:37:24.720Z,99096.24
2023-08-29T09:39:58.358Z,99096.79
2023-08-29T09:42:31.757Z,99104.96
2023-08-29T09:45:04.376Z,99117.00
2023-08-29T09:47:37.327Z,99129.23
2023-08-29T09:50:11.154Z,99129.63
2023-08-29T09:52:44.091Z,99116.90
2023-08-29T09:55:19.222Z,99110.86
2023-08-29T09:57:55.169Z,99102.94
2023-08-29T10:00:27.989Z,99107.27
2023-08-29T10:03:01.148Z,99103.95
2023-08-29T10:05:37.576Z,99102.98
2023-08-29T10:08:19.421Z,99110.24
2023-08-29T10:10:56.510Z,99122.38
2023-08-29T10:13:30.162Z,99126.00
2023-08-29T10:16:02.742Z,99118.60
2023-08-29T10:18:36.400Z,99125.98
2023-08-29T10:21:09.263Z,99142.20
2023-08-29T10:23:42.596Z,99145.96
2023-08-29T10:26:15.380Z,99139.77
2023-08-29T10:28:49.112Z,99142.73
2023-08-29T10:31:22.555Z,99161.05
2023-08-29T10:33:56.783Z,99161.91
2023-08-29T10:36:29.107Z,99144.14
2023-08-29T10:39:01.346Z,99140.91
2023-08-29T10:41:47.262Z,99137.95
2023-08-29T10:44:38.082Z,99125.70
2023-08-29T10:47:28.045Z,99111.93
2023-08-29T10:50:06.279Z,99064.98
2023-08-29T10:52:43.167Z,99043.64
2023-08-29T10:55:24.916Z,99047.59
2023-08-29T10:57:59.923Z,99098.00
2023-08-29T11:00:58.163Z,99104.52
2023-08-29T11:03:51.390Z,99092.69
2023-08-29T11:06:25.482Z,99097.89
2023-08-29T11:09:22.452Z,99086.56
2023-08-29T11:12:12.141Z,99073.83
2023-08-29T11:14:54.964Z,99086.99
2023-08-29T11:17:28.164Z,99095.95
2023-08-29T11:20:03.024Z,99086.11
2023-08-29T11:22:35.237Z,99082.05
2023-08-29T11:25:09.545Z,99079.59
2023-08-29T11:27:40.529Z,99080.58
2023-08-29T11:30:28.415Z,99086.50
2023-08-29T11:33:07.537Z,99087.66
2023-08-29T11:35:40.129Z,99100.96
2023-08-29T11:38:12.330Z,99097.41
2023-08-29T11:40:57.040Z,99098.17
2023-08-29T11:44:00.387Z,99112.52
2023-08-29T11:46:36.540Z,99106.49
2023-08-29T11:49:16.510Z,99098.15
2023-08-29T11:51:48.601Z,99084.23
2023-08-29T11:54:42.564Z,99077.80
2023-08-29T11:57:16.844Z,99080.70
2023-08-29T11:59:50.284Z,99087.79
2023-08-29T12:02:23.561Z,99089.80
2023-08-29T12:04:58.811Z,99098.20
2023-08-29T12:07:35.820Z,99116.47
2023-08-29T12:10:15.103Z,99123.67
2023-08-29T12:12:47.291Z,99124.22
2023-08-29T12:15:30.715Z,99127.27
2023-08-29T12:18:21.082Z,99123.27
2023-08-29T12:20:53.905Z,99120.19
2023-08-29T12:23:30.095Z,99117.40
2023-08-29T12:26:02.206Z,99123.42
2023-08-29T12:28:34.658Z,99121.24
2023-08-29T12:31:08.820Z,99121.41
2023-08-29T12:33:41.100Z,99115.06
2023-08-29T12:36:13.376Z,99114.84
2023-08-29T12:38:45.561Z,99114.51
2023-08-29T12:41:18.357Z,99107.70
2023-08-29T12:43:50.603Z,99116.92
2023-08-29T12:46:23.484Z,99122.19
2023-08-29T12:48:56.462Z,99125.09
2023-08-29T12:51:28.636Z,99125.91
2023-08-29T12:54:01.170Z,99124.59
2023-08-29T12:56:34.028Z,99129.67
2023-08-29T12:59:06.600Z,99127.21
2023-08-29T13:01:38.885Z,99124.09
2023-08-29T13:04:11.268Z,99121.75
2023-08-29T13:06:43.679Z,99119.73
2023-08-29T13:09:30.791Z,99117.77
2023-08-29T13:12:09.455Z,99116.16
2023-08-29T13:14:41.874Z,99114.95
2023-08-29T13:17:15.071Z,99122.23
2023-08-29T13:19:47.527Z,99122.50
2023-08-29T13:22:20.211Z,99121.95
2023-08-29T13:24:53.132Z,99126.63
2023-08-29T13:27:25.666Z,99123.17
2023-08-29T13:29:58.251Z,99124.21
2023-08-29T13:32:31.721Z,99121.51
2023-08-29T13:35:05.327Z,99123.98
2023-08-29T13:37:37.514Z,99125.73
2023-08-29T13:40:12.290Z,99130.07
2023-08-29T13:42:44.805Z,99125.90
2023-08-29T13:45:17.062Z,99123.92
2023-08-29T13:47:50.234Z,99125.59
2023-08-29T13:50:22.628Z,99127.19
2023-08-29T13:52:57.103Z,99125.11
2023-08-29T13:55:29.405Z,99122.98
2023-08-29T13:58:01.904Z,99120.39
2023-08-29T14:00:35.660Z,99106.38
2023-08-29T14:03:08.928Z,99101.42
2023-08-29T14:05:42.143Z,99100.84
2023-08-29T14:08:14.874Z,99103.02
2023-08-29T14:10:47.040Z,99112.23
2023-08-29T14:13:19.300Z,99105.46
2023-08-29T14:15:58.279Z,99105.13
2023-08-29T14:18:31.093Z,99105.50
2023-08-29T14:21:03.747Z,99106.70
2023-08-29T14:23:35.962Z,99109.61
2023-08-29T14:26:12.076Z,99110.93
2023-08-29T14:28:44.286Z,99113.55
2023-08-29T14:31:16.781Z,99110.27
2023-08-29T14:33:48.949Z,99110.04
2023-08-29T14:36:21.308Z,99112.30
2023-08-29T14:38:53.405Z,99105.33
2023-08-29T14:41:25.613Z,99106.86
2023-08-29T14:43:58.005Z,99096.66
2023-08-29T14:46:30.471Z,99089.00
2023-08-29T14:49:04.173Z,99089.17
2023-08-29T14:51:36.970Z,99087.85
2023-08-29T14:54:09.411Z,99088.55
2023-08-29T14:56:42.866Z,99085.16
2023-08-29T14:59:15.172Z,99083.13
2023-08-29T15:01:48.279Z,99082.20
2023-08-29T15:04:20.791Z,99083.39
2023-08-29T15:06:53.355Z,99081.90
2023-08-29T15:09:25.649Z,99078.86
2023-08-29T15:11:58.239Z,99079.44
2023-08-29T15:14:30.423Z,99075.77
2023-08-29T15:17:02.952Z,99076.48
2023-08-29T15:19:36.266Z,99070.10
2023-08-29T15:22:08.899Z,99073.16
2023-08-29T15:24:41.424Z,99073.92
2023-08-29T15:27:13.946Z,99080.61
2023-08-29T15:29:46.265Z,99080.21
2023-08-29T15:32:18.797Z,99085.06
2023-08-29T15:34:50.913Z,99091.55
2023-08-29T15:37:23.669Z,99093.85
2023-08-29T15:39:56.149Z,99092.98
2023-08-29T15:42:31.910Z,99102.70
2023-08-29T15:45:04.576Z,99100.66
2023-08-29T15:47:36.894Z,99108.46
2023-08-29T15:50:11.213Z,99113.74
2023-08-29T15:52:42.160Z,99109.80
2023-08-29T15:55:14.698Z,99110.59
2023-08-29T15:57:46.878Z,99100.16
2023-08-29T16:00:21.133Z,99107.25
2023-08-29T16:02:55.313Z,99118.63
2023-08-29T16:05:29.731Z,99133.73
2023-08-29T16:08:02.417Z,99152.02
2023-08-29T16:10:34.517Z,99170.94
2023-08-29T16:13:07.021Z,99188.47
2023-08-29T16:15:39.171Z,99204.01
2023-08-29T16:18:11.626Z,99196.50
2023-08-29T16:20:44.526Z,99187.94
2023-08-29T16:23:16.852Z,99163.12
2023-08-29T16:25:50.407Z,99125.56
2023-08-29T16:28:24.576Z,99086.24
2023-08-29T16:30:56.930Z,99089.09
2023-08-29T16:33:29.299Z,99104.09
2023-08-29T16:36:02.059Z,99110.16
2023-08-29T16:38:34.493Z,99110.95
2023-08-29T16:41:06.779Z,99093.65
2023-08-29T16:43:38.983Z,99062.46
2023-08-29T16:46:14.443Z,99036.19
2023-08-29T16:48:47.121Z,99034.95
2023-08-29T16:51:19.651Z,99043.15
2023-08-29T16:53:58.432Z,99033.11
2023-08-29T16:56:38.612Z,99022.23
2023-08-29T16:59:13.096Z,99006.16
2023-08-29T17:01:46.969Z,99034.71
2023-08-29T17:04:19.479Z,99074.73
2023-08-29T17:06:56.273Z,99088.91
2023-08-29T17:09:38.299Z,99098.83
2023-08-29T17:12:26.582Z,99105.73
2023-08-29T17:15:01.283Z,99111.55
2023-08-29T17:17:34.324Z,99109.26
2023-08-29T17:20:11.199Z,99097.08
2023-08-29T17:22:45.924Z,99089.17
2023-08-29T17:25:18.717Z,99100.52
2023-08-29T17:27:51.033Z,99111.27
2023-08-29T17:30:23.902Z,99089.05
2023-08-29T17:32:56.206Z,99063.33
2023-08-29T17:35:29.858Z,99057.02
2023-08-29T17:38:02.262Z,99057.39
2023-08-29T17:40:35.049Z,99062.95
2023-08-29T17:43:11.638Z,99066.25
2023-08-29T17:45:55.076Z,99073.10
2023-08-29T17:48:28.198Z,99078.69
2023-08-29T17:51:01.616Z,99078.48
2023-08-29T17:53:36.963Z,99084.08
2023-08-29T17:56:10.010Z,99081.21
2023-08-29T17:58:43.008Z,99080.34
2023-08-29T18:01:15.508Z,99083.04
2023-08-29T18:03:47.996Z,99092.86
2023-08-29T18:06:25.016Z,99099.27
2023-08-29T18:08:58.115Z,99106.34
2023-08-29T18:11:31.235Z,99118.90
2023-08-29T18:14:05.113Z,99126.53
2023-08-29T18:16:38.048Z,99130.98
2023-08-29T18:19:11.346Z,99126.65
2023-08-29T18:21:44.274Z,99127.45
2023-08-29T18:24:17.081Z,99123.57
2023-08-29T18:26:49.751Z,99127.52
2023-08-29T18:29:22.180Z,99133.87
2023-08-29T18:31:55.351Z,99129.77
2023-08-29T18:34:28.504Z,99128.23
2023-08-29T18:37:01.020Z,99122.20
2023-08-29T18:39:33.500Z,99107.50
2023-08-29T18:42:06.159Z,99112.66
2023-08-29T18:44:38.976Z,99110.80
2023-08-29T18:47:11.711Z,99108.60
2023-08-29T18:49:44.352Z,99107.98
2023-08-29T18:52:17.422Z,99110.45
2023-08-29T18:54:49.963Z,99104.70
2023-08-29T18:57:23.489Z,99100.92
2023-08-29T18:59:56.377Z,99103.33
2023-08-29T19:02:29.182Z,99109.25
2023-08-29T19:05:04.928Z,99107.13
2023-08-29T19:07:38.046Z,99102.84
2023-08-29T19:10:12.609Z,99098.07
2023-08-29T19:12:46.304Z,99096.48
2023-08-29T19:15:19.033Z,99086.40
2023-08-29T19:17:51.811Z,99086.73
2023-08-29T19:20:24.236Z,99092.71
2023-08-29T19:22:57.046Z,99093.30
2023-08-29T19:25:29.787Z,99093.14
2023-08-29T19:28:02.617Z,99090.80
2023-08-29T19:30:36.286Z,99088.55
2023-08-29T19:33:12.416Z,99086.20
2023-08-29T19:35:45.527Z,99084.94
2023-08-29T19:38:18.278Z,99079.06
2023-08-29T19:40:50.789Z,99075.11
2023-08-29T19:43:23.166Z,99068.98
2023-08-29T19:45:55.969Z,99058.83
2023-08-29T19:48:28.508Z,99059.48
2023-08-29T19:51:01.497Z,99050.38
2023-08-29T19:53:36.639Z,99039.25
2023-08-29T19:56:15.717Z,99033.21
2023-08-29T19:58:48.207Z,99022.80
2023-08-29T20:01:21.051Z,99027.90
2023-08-29T20:03:54.351Z,99038.39
2023-08-29T20:06:27.071Z,99054.67
2023-08-29T20:08:59.556Z,99063.00
2023-08-29T20:11:32.706Z,99062.23
2023-08-29T20:14:05.320Z,99053.91
2023-08-29T20:16:37.832Z,99053.63
2023-08-29T20:19:10.695Z,99046.45
2023-08-29T20:21:43.207Z,99049.02
2023-08-29T20:24:15.987Z,99052.04
2023-08-29T20:26:49.276Z,99060.70
2023-08-29T20:29:22.330Z,99061.09
2023-08-29T20:31:54.700Z,99076.26
2023-08-29T20:34:27.106Z,99097.91
2023-08-29T20:36:59.437Z,99097.80
2023-08-29T20:39:33.256Z,99103.50
2023-08-29T20:42:06.190Z,99104.11
2023-08-29T20:44:38.508Z,99095.07
2023-08-29T20:47:12.150Z,99090.27
2023-08-29T20:49:44.847Z,99089.84
2023-08-29T20:52:17.642Z,99097.86
2023-08-29T20:54:51.406Z,99101.98
2023-08-29T20:57:24.041Z,99101.95
2023-08-29T20:59:56.790Z,99101.29
2023-08-29T21:02:29.539Z,99096.02
2023-08-29T21:05:02.010Z,99093.23
2023-08-29T21:07:34.475Z,99084.14
2023-08-29T21:10:08.534Z,99075.65
2023-08-29T21:12:41.284Z,99076.64
2023-08-29T21:15:14.146Z,99078.44
2023-08-29T21:17:46.761Z,99071.76
2023-08-29T21:20:20.828Z,99064.36
2023-08-29T21:22:53.733Z,99063.30
2023-08-29T21:25:26.285Z,99063.92
2023-08-29T21:27:59.043Z,99066.50
2023-08-29T21:30:31.456Z,99059.71
2023-08-29T21:33:04.519Z,99064.31
2023-08-29T21:35:38.232Z,99058.27
2023-08-29T21:38:11.514Z,99064.49
2023-08-29T21:40:46.786Z,99066.64
2023-08-29T21:43:22.872Z,99059.63
2023-08-29T21:46:00.304Z,99058.35
2023-08-29T21:48:32.758Z,99062.00
2023-08-29T21:51:05.758Z,99067.04
2023-08-29T21:53:38.167Z,99070.86
2023-08-29T21:56:13.226Z,99072.02
2023-08-29T21:58:46.000Z,99063.14
2023-08-29T22:01:18.456Z,99049.84
2023-08-29T22:03:51.155Z,99039.71
2023-08-29T22:06:23.926Z,99045.02
2023-08-29T22:08:56.394Z,99040.52
2023-08-29T22:11:29.188Z,99031.99
2023-08-29T22:14:01.627Z,99032.38
2023-08-29T22:16:34.064Z,99036.09
2023-08-29T22:19:06.949Z,99040.31
2023-08-29T22:21:39.386Z,99049.56
2023-08-29T22:24:13.208Z,99056.46
2023-08-29T22:26:46.508Z,99064.17
2023-08-29T22:29:19.775Z,99073.99
2023-08-29T22:31:52.149Z,99077.71
2023-08-29T22:34:24.478Z,99079.90
2023-08-29T22:36:57.246Z,99073.99
2023-08-29T22:39:31.574Z,99063.65
2023-08-29T22:42:04.037Z,99063.41
2023-08-29T22:44:36.882Z,99063.80
2023-08-29T22:47:09.462Z,99055.85
2023-08-29T22:49:41.985Z,99051.23
2023-08-29T22:52:14.557Z,99046.30
2023-08-29T22:54:47.065Z,99041.98
2023-08-29T22:57:20.243Z,99035.66
2023-08-29T22:59:52.770Z,99036.80
2023-08-29T23:02:25.368Z,99034.98
2023-08-29T23:04:57.827Z,99040.02
2023-08-29T23:07:30.250Z,99035.98
2023-08-29T23:10:02.687Z,99033.41
2023-08-29T23:12:35.153Z,99028.98
2023-08-29T23:15:09.120Z,99031.43
2023-08-29T23:17:42.492Z,99023.95
2023-08-29T23:20:15.634Z,99012.70
2023-08-29T23:22:50.607Z,99009.62
2023-08-29T23:25:24.998Z,98997.26
2023-08-29T23:27:57.743Z,98990.19
2023-08-29T23:30:30.355Z,98981.92
2023-08-29T23:33:03.153Z,98979.78
2023-08-29T23:35:35.918Z,98976.39
2023-08-29T23:38:08.645Z,98976.13
2023-08-29T23:40:41.620Z,98980.60
2023-08-29T23:43:14.507Z,98978.91
2023-08-29T23:45:47.706Z,98977.88
2023-08-29T23:48:20.396Z,98974.14
2023-08-29T23:50:53.064Z,98970.20
2023-08-29T23:53:25.711Z,98973.77
2023-08-29T23:55:58.460Z,98974.80
2023-08-29T23:58:31.173Z,98979.84
